sensor_id;sensor_type;location;lat;lon;timestamp;pressure;altitude;pressure_sealevel;temperature;humidity
37132;BME280;23035;50.032;21.978;2023-01-31T00:04:05;65206.97;;;0.33;100.00
37132;BME280;23035;50.032;21.978;2023-01-31T00:09:13;65157.50;;;-0.14;100.00
37132;BME280;23035;50.032;21.978;2023-01-31T00:14:19;65191.97;;;0.16;100.00
37132;BME280;23035;50.032;21.978;2023-01-31T00:19:25;65215.56;;;0.44;100.00
37132;BME280;23035;50.032;21.978;2023-01-31T00:24:30;65173.56;;;0.04;100.00
37132;BME280;23035;50.032;21.978;2023-01-31T00:29:35;65159.75;;;-0.10;100.00
37132;BME280;23035;50.032;21.978;2023-01-31T00:34:42;65165.50;;;-0.07;100.00
37132;BME280;23035;50.032;21.978;2023-01-31T00:39:47;65176.75;;;0.07;100.00
37132;BME280;23035;50.032;21.978;2023-01-31T00:44:52;65181.97;;;0.09;100.00
37132;BME280;23035;50.032;21.978;2023-01-31T00:49:58;65212.38;;;0.41;100.00
37132;BME280;23035;50.032;21.978;2023-01-31T00:55:03;65222.38;;;0.48;100.00
37132;BME280;23035;50.032;21.978;2023-01-31T01:00:08;65211.44;;;0.42;100.00
37132;BME280;23035;50.032;21.978;2023-01-31T01:05:15;65209.31;;;0.40;100.00
37132;BME280;23035;50.032;21.978;2023-01-31T01:10:21;65206.44;;;0.33;100.00
37132;BME280;23035;50.032;21.978;2023-01-31T01:15:25;65241.22;;;0.71;100.00
37132;BME280;23035;50.032;21.978;2023-01-31T01:20:32;65248.53;;;0.75;100.00
37132;BME280;23035;50.032;21.978;2023-01-31T01:25:44;65242.59;;;0.67;100.00
37132;BME280;23035;50.032;21.978;2023-01-31T01:30:48;65256.44;;;0.80;100.00
37132;BME280;23035;50.032;21.978;2023-01-31T01:35:59;65225.78;;;0.56;100.00
37132;BME280;23035;50.032;21.978;2023-01-31T01:41:04;65256.63;;;0.85;100.00
37132;BME280;23035;50.032;21.978;2023-01-31T01:46:11;65244.72;;;0.69;100.00
37132;BME280;23035;50.032;21.978;2023-01-31T01:51:19;65243.44;;;0.75;100.00
37132;BME280;23035;50.032;21.978;2023-01-31T01:56:29;65244.94;;;0.74;100.00
37132;BME280;23035;50.032;21.978;2023-01-31T02:01:37;65251.63;;;0.76;100.00
37132;BME280;23035;50.032;21.978;2023-01-31T02:06:45;65277.72;;;1.01;100.00
37132;BME280;23035;50.032;21.978;2023-01-31T02:11:51;65291.88;;;1.09;100.00
37132;BME280;23035;50.032;21.978;2023-01-31T02:16:56;65329.97;;;1.53;100.00
37132;BME280;23035;50.032;21.978;2023-01-31T02:22:16;65267.25;;;0.96;100.00
37132;BME280;23035;50.032;21.978;2023-01-31T02:27:39;65281.44;;;1.04;100.00
37132;BME280;23035;50.032;21.978;2023-01-31T02:32:54;65270.78;;;0.94;100.00
37132;BME280;23035;50.032;21.978;2023-01-31T02:38:13;65281.13;;;1.09;100.00
37132;BME280;23035;50.032;21.978;2023-01-31T02:43:24;65283.03;;;1.06;100.00
37132;BME280;23035;50.032;21.978;2023-01-31T02:48:40;65294.19;;;1.17;100.00
37132;BME280;23035;50.032;21.978;2023-01-31T02:53:56;65263.44;;;0.90;100.00
37132;BME280;23035;50.032;21.978;2023-01-31T02:59:06;65278.25;;;1.01;100.00
37132;BME280;23035;50.032;21.978;2023-01-31T03:04:14;65301.56;;;1.21;100.00
37132;BME280;23035;50.032;21.978;2023-01-31T03:09:23;65303.78;;;1.26;100.00
37132;BME280;23035;50.032;21.978;2023-01-31T03:14:34;65325.06;;;1.46;100.00
37132;BME280;23035;50.032;21.978;2023-01-31T03:19:48;65280.91;;;1.04;100.00
37132;BME280;23035;50.032;21.978;2023-01-31T03:24:58;65315.16;;;1.41;100.00
37132;BME280;23035;50.032;21.978;2023-01-31T03:30:07;65298.47;;;1.21;100.00
37132;BME280;23035;50.032;21.978;2023-01-31T03:35:16;65274.94;;;0.96;100.00
37132;BME280;23035;50.032;21.978;2023-01-31T03:40:25;65267.38;;;0.86;100.00
37132;BME280;23035;50.032;21.978;2023-01-31T03:45:34;65290.03;;;1.15;100.00
37132;BME280;23035;50.032;21.978;2023-01-31T03:50:47;65275.47;;;0.96;100.00
37132;BME280;23035;50.032;21.978;2023-01-31T03:55:56;65263.56;;;0.92;100.00
37132;BME280;23035;50.032;21.978;2023-01-31T04:01:05;65255.91;;;0.80;100.00
37132;BME280;23035;50.032;21.978;2023-01-31T04:06:17;65283.66;;;1.09;100.00
37132;BME280;23035;50.032;21.978;2023-01-31T04:11:26;65239.41;;;0.64;100.00
37132;BME280;23035;50.032;21.978;2023-01-31T04:16:35;65273.25;;;0.92;100.00
37132;BME280;23035;50.032;21.978;2023-01-31T04:21:45;65260.78;;;0.87;100.00
37132;BME280;23035;50.032;21.978;2023-01-31T04:26:53;65268.75;;;0.95;100.00
37132;BME280;23035;50.032;21.978;2023-01-31T04:32:02;65283.97;;;1.04;100.00
37132;BME280;23035;50.032;21.978;2023-01-31T04:37:11;65266.00;;;0.90;100.00
37132;BME280;23035;50.032;21.978;2023-01-31T04:42:18;65281.97;;;1.05;100.00
37132;BME280;23035;50.032;21.978;2023-01-31T04:47:26;65289.41;;;1.12;100.00
37132;BME280;23035;50.032;21.978;2023-01-31T04:52:35;65299.53;;;1.22;100.00
37132;BME280;23035;50.032;21.978;2023-01-31T04:57:43;65258.66;;;0.85;100.00
37132;BME280;23035;50.032;21.978;2023-01-31T05:02:51;65257.69;;;0.86;100.00
37132;BME280;23035;50.032;21.978;2023-01-31T05:08:00;65257.59;;;0.84;100.00
37132;BME280;23035;50.032;21.978;2023-01-31T05:13:08;65239.41;;;0.64;100.00
37132;BME280;23035;50.032;21.978;2023-01-31T05:18:16;65256.84;;;0.78;100.00
37132;BME280;23035;50.032;21.978;2023-01-31T05:23:27;65246.31;;;0.71;100.00
37132;BME280;23035;50.032;21.978;2023-01-31T05:28:35;65260.69;;;0.84;100.00
37132;BME280;23035;50.032;21.978;2023-01-31T05:33:43;65259.28;;;0.88;100.00
37132;BME280;23035;50.032;21.978;2023-01-31T05:38:53;65285.78;;;1.11;100.00
37132;BME280;23035;50.032;21.978;2023-01-31T05:44:01;65285.78;;;1.11;100.00
37132;BME280;23035;50.032;21.978;2023-01-31T05:49:10;65266.00;;;0.90;100.00
37132;BME280;23035;50.032;21.978;2023-01-31T05:54:20;65284.09;;;1.07;100.00
37132;BME280;23035;50.032;21.978;2023-01-31T05:59:28;65304.31;;;1.26;100.00
37132;BME280;23035;50.032;21.978;2023-01-31T06:04:36;65290.47;;;1.13;100.00
37132;BME280;23035;50.032;21.978;2023-01-31T06:09:46;65278.78;;;1.02;100.00
37132;BME280;23035;50.032;21.978;2023-01-31T06:14:52;65321.34;;;1.42;100.00
37132;BME280;23035;50.032;21.978;2023-01-31T06:20:01;65289.94;;;1.12;100.00
37132;BME280;23035;50.032;21.978;2023-01-31T06:25:11;65251.31;;;0.80;100.00
37132;BME280;23035;50.032;21.978;2023-01-31T06:30:21;65311.53;;;1.40;100.00
37132;BME280;23035;50.032;21.978;2023-01-31T06:35:39;65309.09;;;1.31;100.00
37132;BME280;23035;50.032;21.978;2023-01-31T06:40:49;65310.25;;;1.34;100.00
37132;BME280;23035;50.032;21.978;2023-01-31T06:45:57;65287.81;;;1.10;100.00
37132;BME280;23035;50.032;21.978;2023-01-31T06:51:05;65277.19;;;1.00;100.00
37132;BME280;23035;50.032;21.978;2023-01-31T06:56:14;65298.91;;;1.19;100.00
37132;BME280;23035;50.032;21.978;2023-01-31T07:01:21;65295.25;;;1.18;100.00
37132;BME280;23035;50.032;21.978;2023-01-31T07:06:27;65292.59;;;1.15;100.00
37132;BME280;23035;50.032;21.978;2023-01-31T07:11:38;65295.25;;;1.18;100.00
37132;BME280;23035;50.032;21.978;2023-01-31T07:16:45;65285.16;;;1.08;100.00
37132;BME280;23035;50.032;21.978;2023-01-31T07:21:53;65297.41;;;1.20;100.00
37132;BME280;23035;50.032;21.978;2023-01-31T07:27:02;65244.19;;;0.69;100.00
37132;BME280;23035;50.032;21.978;2023-01-31T07:32:09;65251.31;;;0.80;100.00
37132;BME280;23035;50.032;21.978;2023-01-31T07:37:16;65275.03;;;0.98;100.00
37132;BME280;23035;50.032;21.978;2023-01-31T07:42:27;65239.63;;;0.69;100.00
37132;BME280;23035;50.032;21.978;2023-01-31T07:47:36;65242.06;;;0.67;100.00
37132;BME280;23035;50.032;21.978;2023-01-31T07:52:43;65249.50;;;0.74;100.00
37132;BME280;23035;50.032;21.978;2023-01-31T07:57:54;65291.63;;;1.17;100.00
37132;BME280;23035;50.032;21.978;2023-01-31T08:03:01;65266.53;;;0.90;100.00
37132;BME280;23035;50.032;21.978;2023-01-31T08:08:25;65271.53;;;1.00;100.00
37132;BME280;23035;50.032;21.978;2023-01-31T08:13:35;65275.59;;;0.99;100.00
37132;BME280;23035;50.032;21.978;2023-01-31T08:18:44;65239.63;;;0.69;100.00
37132;BME280;23035;50.032;21.978;2023-01-31T08:23:51;65237.19;;;0.60;100.00
37132;BME280;23035;50.032;21.978;2023-01-31T08:29:00;65275.78;;;1.04;100.00
37132;BME280;23035;50.032;21.978;2023-01-31T08:34:08;65291.34;;;1.09;100.00
37132;BME280;23035;50.032;21.978;2023-01-31T08:39:16;65270.47;;;0.99;100.00
37132;BME280;23035;50.032;21.978;2023-01-31T08:44:25;65243.22;;;0.70;100.00
37132;BME280;23035;50.032;21.978;2023-01-31T08:49:33;65297.81;;;1.18;100.00
37132;BME280;23035;50.032;21.978;2023-01-31T08:54:40;65385.88;;;2.07;100.00
37132;BME280;23035;50.032;21.978;2023-01-31T08:59:47;65352.97;;;1.78;100.00
37132;BME280;23035;50.032;21.978;2023-01-31T09:04:54;65299.09;;;1.24;100.00
37132;BME280;23035;50.032;21.978;2023-01-31T09:10:01;65308.56;;;1.30;100.00
37132;BME280;23035;50.032;21.978;2023-01-31T09:15:12;65362.34;;;1.82;100.00
37132;BME280;23035;50.032;21.978;2023-01-31T09:20:20;65354.56;;;1.79;100.00
37132;BME280;23035;50.032;21.978;2023-01-31T09:25:28;65347.00;;;1.69;100.00
37132;BME280;23035;50.032;21.978;2023-01-31T09:30:52;65331.03;;;1.54;100.00
37132;BME280;23035;50.032;21.978;2023-01-31T09:36:01;65354.88;;;1.75;100.00
37132;BME280;23035;50.032;21.978;2023-01-31T09:41:18;65331.13;;;1.57;100.00
37132;BME280;23035;50.032;21.978;2023-01-31T09:46:33;65334.22;;;1.57;100.00
37132;BME280;23035;50.032;21.978;2023-01-31T09:51:42;65342.31;;;1.67;100.00
37132;BME280;23035;50.032;21.978;2023-01-31T09:56:58;65339.00;;;1.62;100.00
37132;BME280;23035;50.032;21.978;2023-01-31T10:02:21;65340.50;;;1.61;100.00
37132;BME280;23035;50.032;21.978;2023-01-31T10:07:37;65358.63;;;1.78;100.00
37132;BME280;23035;50.032;21.978;2023-01-31T10:12:47;65329.34;;;1.50;100.00
37132;BME280;23035;50.032;21.978;2023-01-31T10:17:58;65379.38;;;1.98;100.00
37132;BME280;23035;50.032;21.978;2023-01-31T10:23:11;65379.47;;;2.00;100.00
37132;BME280;23035;50.032;21.978;2023-01-31T10:28:23;65382.22;;;2.06;100.00
37132;BME280;23035;50.032;21.978;2023-01-31T10:33:37;65391.81;;;2.15;100.00
37132;BME280;23035;50.032;21.978;2023-01-31T10:38:54;65436.47;;;2.55;100.00
37132;BME280;23035;50.032;21.978;2023-01-31T10:44:11;65417.41;;;2.39;100.00
37132;BME280;23035;50.032;21.978;2023-01-31T10:49:22;65448.81;;;2.69;100.00
37132;BME280;23035;50.032;21.978;2023-01-31T10:54:41;65408.88;;;2.31;100.00
37132;BME280;23035;50.032;21.978;2023-01-31T10:59:53;65484.44;;;3.01;100.00
37132;BME280;23035;50.032;21.978;2023-01-31T11:05:03;65451.28;;;2.67;100.00
37132;BME280;23035;50.032;21.978;2023-01-31T11:10:21;65455.75;;;2.76;100.00
37132;BME280;23035;50.032;21.978;2023-01-31T11:15:29;65436.56;;;2.57;100.00
37132;BME280;23035;50.032;21.978;2023-01-31T11:20:46;65439.75;;;2.61;100.00
37132;BME280;23035;50.032;21.978;2023-01-31T11:25:53;65476.44;;;2.93;100.00
37132;BME280;23035;50.032;21.978;2023-01-31T11:30:59;65473.75;;;2.91;100.00
37132;BME280;23035;50.032;21.978;2023-01-31T11:36:11;65530.28;;;3.44;100.00
37132;BME280;23035;50.032;21.978;2023-01-31T11:41:33;65488.78;;;3.07;100.00
37132;BME280;23035;50.032;21.978;2023-01-31T11:46:46;65510.66;;;3.28;100.00
37132;BME280;23035;50.032;21.978;2023-01-31T11:51:57;65464.16;;;2.81;100.00
37132;BME280;23035;50.032;21.978;2023-01-31T11:57:14;65471.09;;;2.88;100.00
37132;BME280;23035;50.032;21.978;2023-01-31T12:02:31;65411.34;;;2.28;100.00
37132;BME280;23035;50.032;21.978;2023-01-31T12:07:45;65411.78;;;2.26;100.00
37132;BME280;23035;50.032;21.978;2023-01-31T12:12:57;65409.22;;;2.26;100.00
37132;BME280;23035;50.032;21.978;2023-01-31T12:18:36;65396.63;;;2.19;100.00
37132;BME280;23035;50.032;21.978;2023-01-31T12:24:04;65378.94;;;2.00;100.00
37132;BME280;23035;50.032;21.978;2023-01-31T12:35:03;65361.72;;;1.79;100.00
37132;BME280;23035;50.032;21.978;2023-01-31T12:40:38;65344.22;;;1.64;100.00
37132;BME280;23035;50.032;21.978;2023-01-31T12:45:55;65316.22;;;1.42;100.00
37132;BME280;23035;50.032;21.978;2023-01-31T12:51:20;65332.09;;;1.55;100.00
37132;BME280;23035;50.032;21.978;2023-01-31T12:56:50;65347.72;;;1.75;100.00
37132;BME280;23035;50.032;21.978;2023-01-31T13:02:13;65311.13;;;1.30;100.00
37132;BME280;23035;50.032;21.978;2023-01-31T13:07:27;65352.22;;;1.72;100.00
37132;BME280;23035;50.032;21.978;2023-01-31T13:12:37;65386.28;;;2.05;100.00
37132;BME280;23035;50.032;21.978;2023-01-31T13:17:43;65382.56;;;2.01;100.00
37132;BME280;23035;50.032;21.978;2023-01-31T13:22:54;65351.25;;;1.73;100.00
37132;BME280;23035;50.032;21.978;2023-01-31T13:28:08;65309.19;;;1.33;100.00
37132;BME280;23035;50.032;21.978;2023-01-31T13:33:26;65310.25;;;1.34;100.00
37132;BME280;23035;50.032;21.978;2023-01-31T13:38:38;65321.88;;;1.43;100.00
37132;BME280;23035;50.032;21.978;2023-01-31T13:43:47;65343.25;;;1.66;100.00
37132;BME280;23035;50.032;21.978;2023-01-31T13:48:56;65330.81;;;1.49;100.00
37132;BME280;23035;50.032;21.978;2023-01-31T13:54:11;65318.25;;;1.42;100.00
37132;BME280;23035;50.032;21.978;2023-01-31T13:59:24;65335.72;;;1.56;100.00
37132;BME280;23035;50.032;21.978;2023-01-31T14:04:33;65352.13;;;1.69;100.00
37132;BME280;23035;50.032;21.978;2023-01-31T14:09:45;65331.56;;;1.55;100.00
37132;BME280;23035;50.032;21.978;2023-01-31T14:20:50;65365.97;;;1.83;100.00
37132;BME280;23035;50.032;21.978;2023-01-31T14:25:55;65333.06;;;1.54;100.00
37132;BME280;23035;50.032;21.978;2023-01-31T14:31:11;65348.16;;;1.73;100.00
37132;BME280;23035;50.032;21.978;2023-01-31T14:42:18;65370.31;;;1.89;100.00
37132;BME280;23035;50.032;21.978;2023-01-31T14:47:38;65337.94;;;1.61;100.00
37132;BME280;23035;50.032;21.978;2023-01-31T14:53:03;65347.09;;;1.72;100.00
37132;BME280;23035;50.032;21.978;2023-01-31T14:58:15;65323.47;;;1.44;100.00
37132;BME280;23035;50.032;21.978;2023-01-31T15:03:27;65356.69;;;1.81;100.00
37132;BME280;23035;50.032;21.978;2023-01-31T15:08:43;65302.19;;;1.24;100.00
37132;BME280;23035;50.032;21.978;2023-01-31T15:13:50;65324.41;;;1.55;100.00
37132;BME280;23035;50.032;21.978;2023-01-31T15:19:00;65288.97;;;1.14;100.00
37132;BME280;23035;50.032;21.978;2023-01-31T15:24:17;65310.91;;;1.37;100.00
37132;BME280;23035;50.032;21.978;2023-01-31T15:29:24;65304.31;;;1.26;100.00
37132;BME280;23035;50.032;21.978;2023-01-31T15:34:32;65313.34;;;1.35;100.00
37132;BME280;23035;50.032;21.978;2023-01-31T15:39:48;65270.25;;;0.94;100.00
37132;BME280;23035;50.032;21.978;2023-01-31T15:45:20;65318.78;;;1.42;100.00
37132;BME280;23035;50.032;21.978;2023-01-31T15:50:27;65264.94;;;0.89;100.00
37132;BME280;23035;50.032;21.978;2023-01-31T15:55:35;65288.34;;;1.11;100.00
37132;BME280;23035;50.032;21.978;2023-01-31T16:00:43;65279.41;;;1.05;100.00
37132;BME280;23035;50.032;21.978;2023-01-31T16:05:53;65307.59;;;1.32;100.00
37132;BME280;23035;50.032;21.978;2023-01-31T16:11:02;65298.13;;;1.25;100.00
37132;BME280;23035;50.032;21.978;2023-01-31T16:16:10;65324.00;;;1.45;100.00
37132;BME280;23035;50.032;21.978;2023-01-31T16:21:26;65309.63;;;1.31;100.00
37132;BME280;23035;50.032;21.978;2023-01-31T16:26:36;65339.63;;;1.65;100.00
37132;BME280;23035;50.032;21.978;2023-01-31T16:31:46;65273.13;;;1.01;100.00
37132;BME280;23035;50.032;21.978;2023-01-31T16:36:59;65241.53;;;0.66;100.00
37132;BME280;23035;50.032;21.978;2023-01-31T16:42:06;65310.69;;;1.32;100.00
37132;BME280;23035;50.032;21.978;2023-01-31T16:47:28;65326.78;;;1.50;100.00
37132;BME280;23035;50.032;21.978;2023-01-31T16:52:36;65321.44;;;1.45;100.00
37132;BME280;23035;50.032;21.978;2023-01-31T16:57:42;65308.78;;;1.35;100.00
37132;BME280;23035;50.032;21.978;2023-01-31T17:02:47;65313.03;;;1.39;100.00
37132;BME280;23035;50.032;21.978;2023-01-31T17:07:52;65241.22;;;0.71;100.00
37132;BME280;23035;50.032;21.978;2023-01-31T17:13:00;65271.22;;;0.92;100.00
37132;BME280;23035;50.032;21.978;2023-01-31T17:18:08;65296.00;;;1.23;100.00
37132;BME280;23035;50.032;21.978;2023-01-31T17:23:14;65303.88;;;1.28;100.00
37132;BME280;23035;50.032;21.978;2023-01-31T17:28:20;65277.47;;;1.08;100.00
37132;BME280;23035;50.032;21.978;2023-01-31T17:33:25;65276.53;;;0.97;100.00
37132;BME280;23035;50.032;21.978;2023-01-31T17:38:29;65339.53;;;1.62;100.00
37132;BME280;23035;50.032;21.978;2023-01-31T17:43:37;65286.84;;;1.12;100.00
37132;BME280;23035;50.032;21.978;2023-01-31T17:48:41;65334.13;;;1.55;100.00
37132;BME280;23035;50.032;21.978;2023-01-31T17:53:46;65370.31;;;1.89;100.00
37132;BME280;23035;50.032;21.978;2023-01-31T17:58:53;65346.47;;;1.69;100.00
37132;BME280;23035;50.032;21.978;2023-01-31T18:03:58;65287.47;;;1.15;100.00
37132;BME280;23035;50.032;21.978;2023-01-31T18:09:04;65307.50;;;1.29;100.00
37132;BME280;23035;50.032;21.978;2023-01-31T18:14:12;65324.00;;;1.45;100.00
37132;BME280;23035;50.032;21.978;2023-01-31T18:19:17;65295.16;;;1.15;100.00
37132;BME280;23035;50.032;21.978;2023-01-31T18:24:22;65377.75;;;1.96;100.00
37132;BME280;23035;50.032;21.978;2023-01-31T18:29:28;65303.25;;;1.25;100.00
37132;BME280;23035;50.032;21.978;2023-01-31T18:34:33;65289.84;;;1.10;100.00
37132;BME280;23035;50.032;21.978;2023-01-31T18:39:38;65283.13;;;1.08;100.00
37132;BME280;23035;50.032;21.978;2023-01-31T18:44:44;65288.34;;;1.11;100.00
37132;BME280;23035;50.032;21.978;2023-01-31T18:49:49;65249.94;;;0.72;100.00
37132;BME280;23035;50.032;21.978;2023-01-31T18:54:53;65227.28;;;0.55;100.00
37132;BME280;23035;50.032;21.978;2023-01-31T18:59:59;65246.72;;;0.69;100.00
37132;BME280;23035;50.032;21.978;2023-01-31T19:05:05;65218.31;;;0.49;100.00
37132;BME280;23035;50.032;21.978;2023-01-31T19:10:11;65226.22;;;0.54;100.00
37132;BME280;23035;50.032;21.978;2023-01-31T19:15:17;65292.81;;;1.20;100.00
37132;BME280;23035;50.032;21.978;2023-01-31T19:20:22;65271.84;;;0.95;100.00
37132;BME280;23035;50.032;21.978;2023-01-31T19:25:28;65313.88;;;1.35;100.00
37132;BME280;23035;50.032;21.978;2023-01-31T19:30:34;65352.31;;;1.75;100.00
37132;BME280;23035;50.032;21.978;2023-01-31T19:35:42;65357.56;;;1.77;100.00
37132;BME280;23035;50.032;21.978;2023-01-31T19:40:48;65291.75;;;1.19;100.00
37132;BME280;23035;50.032;21.978;2023-01-31T19:45:55;65330.94;;;1.52;100.00
37132;BME280;23035;50.032;21.978;2023-01-31T19:51:05;65335.81;;;1.59;100.00
37132;BME280;23035;50.032;21.978;2023-01-31T19:56:11;65364.16;;;1.88;100.00
37132;BME280;23035;50.032;21.978;2023-01-31T20:01:17;65324.53;;;1.46;100.00
37132;BME280;23035;50.032;21.978;2023-01-31T20:06:24;65314.31;;;1.33;100.00
37132;BME280;23035;50.032;21.978;2023-01-31T20:11:29;65287.28;;;1.10;100.00
37132;BME280;23035;50.032;21.978;2023-01-31T20:16:36;65258.75;;;0.88;100.00
37132;BME280;23035;50.032;21.978;2023-01-31T20:21:40;65264.06;;;0.93;100.00
37132;BME280;23035;50.032;21.978;2023-01-31T20:26:46;65308.56;;;1.30;100.00
37132;BME280;23035;50.032;21.978;2023-01-31T20:31:57;65274.50;;;0.98;100.00
37132;BME280;23035;50.032;21.978;2023-01-31T20:37:03;65327.94;;;1.54;100.00
37132;BME280;23035;50.032;21.978;2023-01-31T20:42:08;65228.22;;;0.53;100.00
37132;BME280;23035;50.032;21.978;2023-01-31T20:47:15;65232.16;;;0.62;100.00
37132;BME280;23035;50.032;21.978;2023-01-31T20:52:19;65232.59;;;0.60;100.00
37132;BME280;23035;50.032;21.978;2023-01-31T20:57:26;65228.88;;;0.56;100.00
37132;BME280;23035;50.032;21.978;2023-01-31T21:02:32;65276.13;;;0.99;100.00
37132;BME280;23035;50.032;21.978;2023-01-31T21:07:37;65281.66;;;1.09;100.00
37132;BME280;23035;50.032;21.978;2023-01-31T21:12:41;65246.94;;;0.74;100.00
37132;BME280;23035;50.032;21.978;2023-01-31T21:17:47;65253.88;;;0.80;100.00
37132;BME280;23035;50.032;21.978;2023-01-31T21:22:51;65243.00;;;0.65;100.00
37132;BME280;23035;50.032;21.978;2023-01-31T21:27:56;65206.00;;;0.35;100.00
37132;BME280;23035;50.032;21.978;2023-01-31T21:33:02;65258.22;;;0.87;100.00
37132;BME280;23035;50.032;21.978;2023-01-31T21:38:07;65261.22;;;0.85;100.00
37132;BME280;23035;50.032;21.978;2023-01-31T21:43:11;65224.50;;;0.50;100.00
37132;BME280;23035;50.032;21.978;2023-01-31T21:48:17;65254.59;;;0.86;100.00
37132;BME280;23035;50.032;21.978;2023-01-31T21:53:35;65247.47;;;0.74;100.00
37132;BME280;23035;50.032;21.978;2023-01-31T21:58:40;65255.38;;;0.79;100.00
37132;BME280;23035;50.032;21.978;2023-01-31T22:03:49;65237.28;;;0.62;100.00
37132;BME280;23035;50.032;21.978;2023-01-31T22:08:55;65265.34;;;0.86;100.00
37132;BME280;23035;50.032;21.978;2023-01-31T22:14:01;65273.44;;;0.97;100.00
37132;BME280;23035;50.032;21.978;2023-01-31T22:19:08;65218.88;;;0.49;100.00
37132;BME280;23035;50.032;21.978;2023-01-31T22:24:19;65276.75;;;1.02;100.00
37132;BME280;23035;50.032;21.978;2023-01-31T22:29:32;65248.34;;;0.70;100.00
37132;BME280;23035;50.032;21.978;2023-01-31T22:34:38;65312.28;;;1.34;100.00
37132;BME280;23035;50.032;21.978;2023-01-31T22:39:44;65276.66;;;1.00;100.00
37132;BME280;23035;50.032;21.978;2023-01-31T22:44:49;65284.19;;;1.09;100.00
37132;BME280;23035;50.032;21.978;2023-01-31T22:49:54;65272.38;;;0.96;100.00
37132;BME280;23035;50.032;21.978;2023-01-31T22:54:59;65254.28;;;0.78;100.00
37132;BME280;23035;50.032;21.978;2023-01-31T23:00:05;65261.31;;;0.88;100.00
37132;BME280;23035;50.032;21.978;2023-01-31T23:05:12;65247.38;;;0.72;100.00
37132;BME280;23035;50.032;21.978;2023-01-31T23:10:17;65213.88;;;0.40;100.00
37132;BME280;23035;50.032;21.978;2023-01-31T23:15:24;65259.72;;;0.86;100.00
37132;BME280;23035;50.032;21.978;2023-01-31T23:20:31;65233.66;;;0.61;100.00
37132;BME280;23035;50.032;21.978;2023-01-31T23:25:35;65238.97;;;0.66;100.00
37132;BME280;23035;50.032;21.978;2023-01-31T23:30:41;65272.38;;;0.96;100.00
37132;BME280;23035;50.032;21.978;2023-01-31T23:35:53;65209.84;;;0.41;100.00
37132;BME280;23035;50.032;21.978;2023-01-31T23:40:57;65201.63;;;0.28;100.00
37132;BME280;23035;50.032;21.978;2023-01-31T23:46:02;65233.00;;;0.58;100.00
37132;BME280;23035;50.032;21.978;2023-01-31T23:51:08;65219.19;;;0.45;100.00
37132;BME280;23035;50.032;21.978;2023-01-31T23:56:13;65215.66;;;0.46;100.00
